sensor_id;sensor_type;location;lat;lon;timestamp;P1;durP1;ratioP1;P2;durP2;ratioP2
14048;SDS011;7099;53.922;10.728;2023-04-15T00:03:59;8.47;;;6.50;;
14048;SDS011;7099;53.922;10.728;2023-04-15T00:08:05;9.50;;;6.43;;
14048;SDS011;7099;53.922;10.728;2023-04-15T00:12:11;9.13;;;6.60;;
14048;SDS011;7099;53.922;10.728;2023-04-15T00:16:17;10.50;;;7.40;;
14048;SDS011;7099;53.922;10.728;2023-04-15T00:20:23;11.13;;;7.50;;
14048;SDS011;7099;53.922;10.728;2023-04-15T00:24:28;10.67;;;7.10;;
14048;SDS011;7099;53.922;10.728;2023-04-15T00:28:35;10.57;;;6.93;;
14048;SDS011;7099;53.922;10.728;2023-04-15T00:32:40;12.67;;;7.73;;
14048;SDS011;7099;53.922;10.728;2023-04-15T00:36:46;11.73;;;7.50;;
14048;SDS011;7099;53.922;10.728;2023-04-15T00:40:54;17.03;;;7.83;;
14048;SDS011;7099;53.922;10.728;2023-04-15T00:45:00;13.57;;;8.70;;
14048;SDS011;7099;53.922;10.728;2023-04-15T00:49:06;18.67;;;9.00;;
14048;SDS011;7099;53.922;10.728;2023-04-15T00:53:12;16.63;;;8.90;;
14048;SDS011;7099;53.922;10.728;2023-04-15T00:57:19;17.57;;;9.40;;
14048;SDS011;7099;53.922;10.728;2023-04-15T01:01:26;19.43;;;10.40;;
14048;SDS011;7099;53.922;10.728;2023-04-15T01:05:33;19.27;;;9.97;;
14048;SDS011;7099;53.922;10.728;2023-04-15T01:09:39;21.90;;;11.67;;
14048;SDS011;7099;53.922;10.728;2023-04-15T01:13:46;26.83;;;12.80;;
14048;SDS011;7099;53.922;10.728;2023-04-15T01:17:52;27.33;;;12.67;;
14048;SDS011;7099;53.922;10.728;2023-04-15T01:21:58;29.20;;;15.47;;
14048;SDS011;7099;53.922;10.728;2023-04-15T01:26:04;33.27;;;17.53;;
14048;SDS011;7099;53.922;10.728;2023-04-15T01:30:11;41.20;;;19.47;;
14048;SDS011;7099;53.922;10.728;2023-04-15T01:34:17;51.87;;;21.90;;
14048;SDS011;7099;53.922;10.728;2023-04-15T01:38:24;44.70;;;22.20;;
14048;SDS011;7099;53.922;10.728;2023-04-15T01:42:32;40.93;;;20.37;;
14048;SDS011;7099;53.922;10.728;2023-04-15T01:46:40;41.83;;;20.90;;
14048;SDS011;7099;53.922;10.728;2023-04-15T01:50:45;37.53;;;20.47;;
14048;SDS011;7099;53.922;10.728;2023-04-15T01:54:52;71.30;;;22.80;;
14048;SDS011;7099;53.922;10.728;2023-04-15T01:58:58;83.30;;;24.97;;
14048;SDS011;7099;53.922;10.728;2023-04-15T02:03:04;45.70;;;22.10;;
14048;SDS011;7099;53.922;10.728;2023-04-15T02:07:10;45.10;;;23.00;;
14048;SDS011;7099;53.922;10.728;2023-04-15T02:11:15;51.73;;;21.97;;
14048;SDS011;7099;53.922;10.728;2023-04-15T02:15:21;50.43;;;23.00;;
14048;SDS011;7099;53.922;10.728;2023-04-15T02:19:27;59.50;;;23.73;;
14048;SDS011;7099;53.922;10.728;2023-04-15T02:23:33;45.13;;;21.83;;
14048;SDS011;7099;53.922;10.728;2023-04-15T02:27:38;78.23;;;23.17;;
14048;SDS011;7099;53.922;10.728;2023-04-15T02:31:44;52.17;;;24.80;;
14048;SDS011;7099;53.922;10.728;2023-04-15T02:35:50;49.43;;;24.20;;
14048;SDS011;7099;53.922;10.728;2023-04-15T02:39:55;53.60;;;22.93;;
14048;SDS011;7099;53.922;10.728;2023-04-15T02:44:01;56.83;;;23.20;;
14048;SDS011;7099;53.922;10.728;2023-04-15T02:48:06;71.17;;;23.80;;
14048;SDS011;7099;53.922;10.728;2023-04-15T02:52:12;69.47;;;23.80;;
14048;SDS011;7099;53.922;10.728;2023-04-15T02:56:17;68.33;;;24.60;;
14048;SDS011;7099;53.922;10.728;2023-04-15T03:00:23;63.57;;;23.20;;
14048;SDS011;7099;53.922;10.728;2023-04-15T03:04:30;90.67;;;25.73;;
14048;SDS011;7099;53.922;10.728;2023-04-15T03:08:36;75.80;;;25.50;;
14048;SDS011;7099;53.922;10.728;2023-04-15T03:12:42;58.40;;;22.67;;
14048;SDS011;7099;53.922;10.728;2023-04-15T03:16:47;60.63;;;24.80;;
14048;SDS011;7099;53.922;10.728;2023-04-15T03:20:54;62.07;;;24.13;;
14048;SDS011;7099;53.922;10.728;2023-04-15T03:24:59;62.90;;;24.70;;
14048;SDS011;7099;53.922;10.728;2023-04-15T03:29:05;62.27;;;24.37;;
14048;SDS011;7099;53.922;10.728;2023-04-15T03:33:11;61.13;;;24.10;;
14048;SDS011;7099;53.922;10.728;2023-04-15T03:37:17;47.50;;;22.53;;
14048;SDS011;7099;53.922;10.728;2023-04-15T03:41:22;49.17;;;23.70;;
14048;SDS011;7099;53.922;10.728;2023-04-15T03:45:28;56.90;;;24.60;;
14048;SDS011;7099;53.922;10.728;2023-04-15T03:49:34;47.33;;;24.00;;
14048;SDS011;7099;53.922;10.728;2023-04-15T03:53:43;58.27;;;27.00;;
14048;SDS011;7099;53.922;10.728;2023-04-15T03:57:48;55.57;;;24.90;;
14048;SDS011;7099;53.922;10.728;2023-04-15T04:01:54;45.27;;;24.30;;
14048;SDS011;7099;53.922;10.728;2023-04-15T04:06:00;45.00;;;24.07;;
14048;SDS011;7099;53.922;10.728;2023-04-15T04:10:06;46.77;;;24.90;;
14048;SDS011;7099;53.922;10.728;2023-04-15T04:14:12;54.77;;;26.37;;
14048;SDS011;7099;53.922;10.728;2023-04-15T04:18:17;47.70;;;24.10;;
14048;SDS011;7099;53.922;10.728;2023-04-15T04:22:23;51.10;;;24.80;;
14048;SDS011;7099;53.922;10.728;2023-04-15T04:26:29;46.57;;;23.67;;
14048;SDS011;7099;53.922;10.728;2023-04-15T04:30:35;59.10;;;25.30;;
14048;SDS011;7099;53.922;10.728;2023-04-15T04:34:40;57.77;;;25.80;;
14048;SDS011;7099;53.922;10.728;2023-04-15T04:38:46;57.30;;;28.30;;
14048;SDS011;7099;53.922;10.728;2023-04-15T04:42:52;52.00;;;26.30;;
14048;SDS011;7099;53.922;10.728;2023-04-15T04:46:58;56.53;;;25.77;;
14048;SDS011;7099;53.922;10.728;2023-04-15T04:51:03;51.27;;;26.07;;
14048;SDS011;7099;53.922;10.728;2023-04-15T04:55:09;54.33;;;27.00;;
14048;SDS011;7099;53.922;10.728;2023-04-15T04:59:15;49.77;;;25.60;;
14048;SDS011;7099;53.922;10.728;2023-04-15T05:03:23;52.17;;;25.57;;
14048;SDS011;7099;53.922;10.728;2023-04-15T05:07:29;48.77;;;25.00;;
14048;SDS011;7099;53.922;10.728;2023-04-15T05:11:34;50.50;;;26.10;;
14048;SDS011;7099;53.922;10.728;2023-04-15T05:15:40;49.57;;;25.77;;
14048;SDS011;7099;53.922;10.728;2023-04-15T05:19:47;54.40;;;27.53;;
14048;SDS011;7099;53.922;10.728;2023-04-15T05:23:52;53.27;;;26.43;;
14048;SDS011;7099;53.922;10.728;2023-04-15T05:27:58;48.97;;;25.40;;
14048;SDS011;7099;53.922;10.728;2023-04-15T05:32:04;52.43;;;25.53;;
14048;SDS011;7099;53.922;10.728;2023-04-15T05:36:10;49.67;;;24.57;;
14048;SDS011;7099;53.922;10.728;2023-04-15T05:40:16;42.50;;;22.97;;
14048;SDS011;7099;53.922;10.728;2023-04-15T05:44:21;50.00;;;25.60;;
14048;SDS011;7099;53.922;10.728;2023-04-15T05:48:27;50.43;;;26.40;;
14048;SDS011;7099;53.922;10.728;2023-04-15T05:52:32;55.23;;;26.03;;
14048;SDS011;7099;53.922;10.728;2023-04-15T05:56:38;55.67;;;26.67;;
14048;SDS011;7099;53.922;10.728;2023-04-15T06:00:43;47.00;;;25.13;;
14048;SDS011;7099;53.922;10.728;2023-04-15T06:04:50;48.57;;;23.93;;
14048;SDS011;7099;53.922;10.728;2023-04-15T06:08:57;50.97;;;24.70;;
14048;SDS011;7099;53.922;10.728;2023-04-15T06:13:02;51.30;;;23.67;;
14048;SDS011;7099;53.922;10.728;2023-04-15T06:17:08;53.53;;;25.00;;
14048;SDS011;7099;53.922;10.728;2023-04-15T06:21:14;46.93;;;24.60;;
14048;SDS011;7099;53.922;10.728;2023-04-15T06:25:20;47.60;;;23.27;;
14048;SDS011;7099;53.922;10.728;2023-04-15T06:29:25;51.47;;;24.60;;
14048;SDS011;7099;53.922;10.728;2023-04-15T06:33:31;39.20;;;21.17;;
14048;SDS011;7099;53.922;10.728;2023-04-15T06:37:36;40.13;;;22.60;;
14048;SDS011;7099;53.922;10.728;2023-04-15T06:41:42;49.50;;;22.30;;
14048;SDS011;7099;53.922;10.728;2023-04-15T06:45:48;44.57;;;23.23;;
14048;SDS011;7099;53.922;10.728;2023-04-15T06:49:53;40.60;;;20.97;;
14048;SDS011;7099;53.922;10.728;2023-04-15T06:53:59;46.37;;;22.20;;
14048;SDS011;7099;53.922;10.728;2023-04-15T06:58:04;52.70;;;22.27;;
14048;SDS011;7099;53.922;10.728;2023-04-15T07:02:10;47.00;;;21.30;;
14048;SDS011;7099;53.922;10.728;2023-04-15T07:06:18;46.80;;;22.37;;
14048;SDS011;7099;53.922;10.728;2023-04-15T07:10:25;36.70;;;19.70;;
14048;SDS011;7099;53.922;10.728;2023-04-15T07:14:31;40.00;;;20.50;;
14048;SDS011;7099;53.922;10.728;2023-04-15T07:18:38;43.33;;;20.50;;
14048;SDS011;7099;53.922;10.728;2023-04-15T07:22:44;46.00;;;21.27;;
14048;SDS011;7099;53.922;10.728;2023-04-15T07:26:49;43.80;;;20.73;;
14048;SDS011;7099;53.922;10.728;2023-04-15T07:30:55;38.37;;;19.20;;
14048;SDS011;7099;53.922;10.728;2023-04-15T07:35:01;46.40;;;20.57;;
14048;SDS011;7099;53.922;10.728;2023-04-15T07:39:07;38.47;;;19.03;;
14048;SDS011;7099;53.922;10.728;2023-04-15T07:43:13;36.83;;;19.17;;
14048;SDS011;7099;53.922;10.728;2023-04-15T07:47:20;39.27;;;19.33;;
14048;SDS011;7099;53.922;10.728;2023-04-15T07:51:26;43.17;;;19.70;;
14048;SDS011;7099;53.922;10.728;2023-04-15T07:55:33;37.87;;;20.90;;
14048;SDS011;7099;53.922;10.728;2023-04-15T07:59:38;38.17;;;19.70;;
14048;SDS011;7099;53.922;10.728;2023-04-15T08:03:44;44.10;;;20.60;;
14048;SDS011;7099;53.922;10.728;2023-04-15T08:07:50;41.53;;;19.87;;
14048;SDS011;7099;53.922;10.728;2023-04-15T08:11:56;45.73;;;20.07;;
14048;SDS011;7099;53.922;10.728;2023-04-15T08:20:37;35.80;;;19.50;;
14048;SDS011;7099;53.922;10.728;2023-04-15T08:24:43;46.60;;;19.57;;
14048;SDS011;7099;53.922;10.728;2023-04-15T08:28:49;37.17;;;19.43;;
14048;SDS011;7099;53.922;10.728;2023-04-15T08:32:55;36.10;;;17.90;;
14048;SDS011;7099;53.922;10.728;2023-04-15T08:37:00;39.43;;;18.93;;
14048;SDS011;7099;53.922;10.728;2023-04-15T08:41:08;40.97;;;19.60;;
14048;SDS011;7099;53.922;10.728;2023-04-15T08:45:29;32.27;;;19.00;;
14048;SDS011;7099;53.922;10.728;2023-04-15T08:49:38;31.40;;;17.07;;
14048;SDS011;7099;53.922;10.728;2023-04-15T08:53:45;30.43;;;18.47;;
14048;SDS011;7099;53.922;10.728;2023-04-15T08:57:51;30.70;;;18.53;;
14048;SDS011;7099;53.922;10.728;2023-04-15T09:01:57;27.47;;;16.47;;
14048;SDS011;7099;53.922;10.728;2023-04-15T09:06:03;28.30;;;18.20;;
14048;SDS011;7099;53.922;10.728;2023-04-15T09:10:10;28.87;;;16.70;;
14048;SDS011;7099;53.922;10.728;2023-04-15T09:14:16;29.80;;;16.90;;
14048;SDS011;7099;53.922;10.728;2023-04-15T09:18:26;24.77;;;16.80;;
14048;SDS011;7099;53.922;10.728;2023-04-15T09:22:36;26.00;;;16.90;;
14048;SDS011;7099;53.922;10.728;2023-04-15T09:26:42;25.00;;;16.53;;
14048;SDS011;7099;53.922;10.728;2023-04-15T09:30:50;24.13;;;15.43;;
14048;SDS011;7099;53.922;10.728;2023-04-15T09:35:09;22.00;;;14.30;;
14048;SDS011;7099;53.922;10.728;2023-04-15T09:39:17;22.90;;;14.97;;
14048;SDS011;7099;53.922;10.728;2023-04-15T09:43:36;25.93;;;14.30;;
14048;SDS011;7099;53.922;10.728;2023-04-15T09:47:43;24.40;;;13.67;;
14048;SDS011;7099;53.922;10.728;2023-04-15T09:51:49;18.73;;;13.20;;
14048;SDS011;7099;53.922;10.728;2023-04-15T09:56:08;18.53;;;13.00;;
14048;SDS011;7099;53.922;10.728;2023-04-15T10:00:14;19.67;;;12.00;;
14048;SDS011;7099;53.922;10.728;2023-04-15T10:04:20;20.17;;;14.03;;
14048;SDS011;7099;53.922;10.728;2023-04-15T10:08:27;19.70;;;12.80;;
14048;SDS011;7099;53.922;10.728;2023-04-15T10:12:36;20.73;;;13.33;;
14048;SDS011;7099;53.922;10.728;2023-04-15T10:16:45;24.30;;;15.10;;
14048;SDS011;7099;53.922;10.728;2023-04-15T10:20:53;20.63;;;13.07;;
14048;SDS011;7099;53.922;10.728;2023-04-15T10:24:59;22.37;;;14.50;;
14048;SDS011;7099;53.922;10.728;2023-04-15T10:29:07;26.47;;;14.87;;
14048;SDS011;7099;53.922;10.728;2023-04-15T10:33:16;27.20;;;16.07;;
14048;SDS011;7099;53.922;10.728;2023-04-15T10:37:32;24.90;;;16.13;;
14048;SDS011;7099;53.922;10.728;2023-04-15T10:41:41;21.70;;;15.00;;
14048;SDS011;7099;53.922;10.728;2023-04-15T10:45:47;24.73;;;15.67;;
14048;SDS011;7099;53.922;10.728;2023-04-15T10:49:57;21.07;;;14.47;;
14048;SDS011;7099;53.922;10.728;2023-04-15T10:54:05;30.87;;;17.80;;
14048;SDS011;7099;53.922;10.728;2023-04-15T10:58:22;21.73;;;16.30;;
14048;SDS011;7099;53.922;10.728;2023-04-15T11:06:46;28.20;;;17.40;;
14048;SDS011;7099;53.922;10.728;2023-04-15T11:11:12;29.83;;;19.43;;
14048;SDS011;7099;53.922;10.728;2023-04-15T11:16:01;37.17;;;19.47;;
14048;SDS011;7099;53.922;10.728;2023-04-15T11:19:50;30.27;;;19.87;;
14048;SDS011;7099;53.922;10.728;2023-04-15T11:23:57;28.90;;;19.40;;
14048;SDS011;7099;53.922;10.728;2023-04-15T11:28:03;29.03;;;18.77;;
14048;SDS011;7099;53.922;10.728;2023-04-15T11:32:09;34.53;;;18.60;;
14048;SDS011;7099;53.922;10.728;2023-04-15T11:36:15;28.33;;;20.08;;
14048;SDS011;7099;53.922;10.728;2023-04-15T11:40:22;32.93;;;21.03;;
14048;SDS011;7099;53.922;10.728;2023-04-15T11:44:31;31.00;;;19.87;;
14048;SDS011;7099;53.922;10.728;2023-04-15T11:48:40;28.43;;;19.63;;
14048;SDS011;7099;53.922;10.728;2023-04-15T11:52:52;31.30;;;20.93;;
14048;SDS011;7099;53.922;10.728;2023-04-15T11:57:02;30.13;;;20.60;;
14048;SDS011;7099;53.922;10.728;2023-04-15T12:01:07;26.70;;;19.07;;
14048;SDS011;7099;53.922;10.728;2023-04-15T12:05:13;26.10;;;19.57;;
14048;SDS011;7099;53.922;10.728;2023-04-15T12:09:20;31.63;;;19.07;;
14048;SDS011;7099;53.922;10.728;2023-04-15T12:13:26;28.37;;;18.73;;
14048;SDS011;7099;53.922;10.728;2023-04-15T12:17:33;25.83;;;17.67;;
14048;SDS011;7099;53.922;10.728;2023-04-15T12:21:57;28.40;;;18.70;;
14048;SDS011;7099;53.922;10.728;2023-04-15T12:26:09;28.13;;;17.77;;
14048;SDS011;7099;53.922;10.728;2023-04-15T12:30:15;28.87;;;19.10;;
14048;SDS011;7099;53.922;10.728;2023-04-15T12:34:30;33.43;;;19.33;;
14048;SDS011;7099;53.922;10.728;2023-04-15T12:38:38;28.73;;;18.60;;
14048;SDS011;7099;53.922;10.728;2023-04-15T12:42:44;29.13;;;18.53;;
14048;SDS011;7099;53.922;10.728;2023-04-15T12:46:49;27.10;;;18.60;;
14048;SDS011;7099;53.922;10.728;2023-04-15T12:50:57;30.63;;;19.00;;
14048;SDS011;7099;53.922;10.728;2023-04-15T12:55:02;28.53;;;18.73;;
14048;SDS011;7099;53.922;10.728;2023-04-15T12:59:08;25.53;;;17.63;;
14048;SDS011;7099;53.922;10.728;2023-04-15T13:03:14;24.73;;;17.60;;
14048;SDS011;7099;53.922;10.728;2023-04-15T13:07:20;26.23;;;16.47;;
14048;SDS011;7099;53.922;10.728;2023-04-15T13:11:26;27.10;;;16.90;;
14048;SDS011;7099;53.922;10.728;2023-04-15T13:15:34;25.40;;;16.13;;
14048;SDS011;7099;53.922;10.728;2023-04-15T13:19:40;26.20;;;16.17;;
14048;SDS011;7099;53.922;10.728;2023-04-15T13:27:53;24.00;;;15.93;;
14048;SDS011;7099;53.922;10.728;2023-04-15T13:31:58;27.27;;;16.13;;
14048;SDS011;7099;53.922;10.728;2023-04-15T13:36:05;25.60;;;16.37;;
14048;SDS011;7099;53.922;10.728;2023-04-15T13:40:11;27.40;;;14.77;;
14048;SDS011;7099;53.922;10.728;2023-04-15T13:44:17;24.80;;;15.90;;
14048;SDS011;7099;53.922;10.728;2023-04-15T13:52:31;28.87;;;16.77;;
14048;SDS011;7099;53.922;10.728;2023-04-15T13:56:36;25.77;;;15.50;;
14048;SDS011;7099;53.922;10.728;2023-04-15T14:00:42;19.90;;;14.40;;
14048;SDS011;7099;53.922;10.728;2023-04-15T14:04:47;25.83;;;15.43;;
14048;SDS011;7099;53.922;10.728;2023-04-15T14:08:53;20.43;;;14.20;;
14048;SDS011;7099;53.922;10.728;2023-04-15T14:12:59;23.80;;;14.50;;
14048;SDS011;7099;53.922;10.728;2023-04-15T14:17:05;20.20;;;14.13;;
14048;SDS011;7099;53.922;10.728;2023-04-15T14:21:11;19.17;;;14.07;;
14048;SDS011;7099;53.922;10.728;2023-04-15T14:25:16;24.67;;;14.03;;
14048;SDS011;7099;53.922;10.728;2023-04-15T16:24:45;19.10;;;12.03;;
14048;SDS011;7099;53.922;10.728;2023-04-15T16:28:50;19.33;;;12.53;;
14048;SDS011;7099;53.922;10.728;2023-04-15T16:32:58;20.80;;;13.20;;
14048;SDS011;7099;53.922;10.728;2023-04-15T16:37:04;20.47;;;11.70;;
14048;SDS011;7099;53.922;10.728;2023-04-15T16:41:09;20.13;;;11.27;;
14048;SDS011;7099;53.922;10.728;2023-04-15T16:45:17;21.10;;;12.30;;
14048;SDS011;7099;53.922;10.728;2023-04-15T16:49:22;21.90;;;11.77;;
14048;SDS011;7099;53.922;10.728;2023-04-15T16:53:30;21.10;;;10.90;;
14048;SDS011;7099;53.922;10.728;2023-04-15T16:57:35;18.73;;;11.90;;
14048;SDS011;7099;53.922;10.728;2023-04-15T17:02:01;22.97;;;11.57;;
14048;SDS011;7099;53.922;10.728;2023-04-15T17:06:06;23.20;;;11.70;;
14048;SDS011;7099;53.922;10.728;2023-04-15T17:10:12;24.30;;;11.50;;
14048;SDS011;7099;53.922;10.728;2023-04-15T17:14:18;19.73;;;10.60;;
14048;SDS011;7099;53.922;10.728;2023-04-15T17:18:23;18.40;;;11.00;;
14048;SDS011;7099;53.922;10.728;2023-04-15T17:22:29;20.13;;;10.70;;
14048;SDS011;7099;53.922;10.728;2023-04-15T17:26:35;24.60;;;10.87;;
14048;SDS011;7099;53.922;10.728;2023-04-15T17:30:40;15.40;;;10.77;;
14048;SDS011;7099;53.922;10.728;2023-04-15T17:34:47;18.17;;;10.37;;
14048;SDS011;7099;53.922;10.728;2023-04-15T17:38:55;14.40;;;10.23;;
14048;SDS011;7099;53.922;10.728;2023-04-15T17:43:00;22.13;;;11.40;;
14048;SDS011;7099;53.922;10.728;2023-04-15T17:47:06;17.73;;;10.40;;
14048;SDS011;7099;53.922;10.728;2023-04-15T17:51:11;18.33;;;10.03;;
14048;SDS011;7099;53.922;10.728;2023-04-15T17:55:17;20.20;;;10.40;;
14048;SDS011;7099;53.922;10.728;2023-04-15T17:59:23;28.83;;;10.33;;
14048;SDS011;7099;53.922;10.728;2023-04-15T18:03:28;20.53;;;10.60;;
14048;SDS011;7099;53.922;10.728;2023-04-15T18:07:34;17.83;;;11.33;;
14048;SDS011;7099;53.922;10.728;2023-04-15T18:11:40;15.13;;;10.63;;
14048;SDS011;7099;53.922;10.728;2023-04-15T18:15:47;17.87;;;10.93;;
14048;SDS011;7099;53.922;10.728;2023-04-15T18:19:55;24.47;;;9.50;;
14048;SDS011;7099;53.922;10.728;2023-04-15T18:24:00;22.80;;;10.40;;
14048;SDS011;7099;53.922;10.728;2023-04-15T18:28:06;21.30;;;9.60;;
14048;SDS011;7099;53.922;10.728;2023-04-15T18:32:13;21.10;;;10.07;;
14048;SDS011;7099;53.922;10.728;2023-04-15T18:36:19;13.67;;;9.90;;
14048;SDS011;7099;53.922;10.728;2023-04-15T18:40:24;18.43;;;9.97;;
14048;SDS011;7099;53.922;10.728;2023-04-15T18:44:31;20.90;;;10.90;;
14048;SDS011;7099;53.922;10.728;2023-04-15T18:48:37;18.37;;;9.73;;
14048;SDS011;7099;53.922;10.728;2023-04-15T18:52:43;30.53;;;11.23;;
14048;SDS011;7099;53.922;10.728;2023-04-15T18:56:49;20.37;;;9.83;;
14048;SDS011;7099;53.922;10.728;2023-04-15T19:00:55;21.13;;;11.30;;
14048;SDS011;7099;53.922;10.728;2023-04-15T19:05:02;23.13;;;10.80;;
14048;SDS011;7099;53.922;10.728;2023-04-15T19:09:09;24.47;;;10.43;;
14048;SDS011;7099;53.922;10.728;2023-04-15T19:13:15;18.20;;;9.77;;
14048;SDS011;7099;53.922;10.728;2023-04-15T19:17:22;16.40;;;11.00;;
14048;SDS011;7099;53.922;10.728;2023-04-15T19:21:28;20.50;;;11.60;;
14048;SDS011;7099;53.922;10.728;2023-04-15T19:25:34;22.17;;;10.77;;
14048;SDS011;7099;53.922;10.728;2023-04-15T19:29:40;25.23;;;10.73;;
14048;SDS011;7099;53.922;10.728;2023-04-15T19:33:46;21.70;;;10.50;;
14048;SDS011;7099;53.922;10.728;2023-04-15T19:37:52;16.53;;;9.97;;
14048;SDS011;7099;53.922;10.728;2023-04-15T19:41:57;20.93;;;11.60;;
14048;SDS011;7099;53.922;10.728;2023-04-15T19:46:03;18.53;;;11.00;;
14048;SDS011;7099;53.922;10.728;2023-04-15T19:50:08;17.60;;;11.50;;
14048;SDS011;7099;53.922;10.728;2023-04-15T19:54:15;22.07;;;11.80;;
14048;SDS011;7099;53.922;10.728;2023-04-15T19:58:21;20.93;;;12.10;;
14048;SDS011;7099;53.922;10.728;2023-04-15T20:02:27;17.23;;;10.97;;
14048;SDS011;7099;53.922;10.728;2023-04-15T20:06:33;22.80;;;11.30;;
14048;SDS011;7099;53.922;10.728;2023-04-15T20:10:39;20.33;;;11.43;;
14048;SDS011;7099;53.922;10.728;2023-04-15T20:14:45;20.07;;;11.67;;
14048;SDS011;7099;53.922;10.728;2023-04-15T20:18:52;19.67;;;11.37;;
14048;SDS011;7099;53.922;10.728;2023-04-15T20:22:57;18.77;;;11.70;;
14048;SDS011;7099;53.922;10.728;2023-04-15T20:27:03;20.10;;;12.27;;
14048;SDS011;7099;53.922;10.728;2023-04-15T20:31:08;18.17;;;11.67;;
14048;SDS011;7099;53.922;10.728;2023-04-15T20:35:14;24.33;;;12.17;;
14048;SDS011;7099;53.922;10.728;2023-04-15T20:39:20;18.60;;;11.80;;
14048;SDS011;7099;53.922;10.728;2023-04-15T20:43:25;23.23;;;12.17;;
14048;SDS011;7099;53.922;10.728;2023-04-15T20:47:31;19.93;;;12.00;;
14048;SDS011;7099;53.922;10.728;2023-04-15T20:51:36;21.73;;;11.10;;
14048;SDS011;7099;53.922;10.728;2023-04-15T20:55:42;21.37;;;11.00;;
14048;SDS011;7099;53.922;10.728;2023-04-15T20:59:48;19.77;;;11.33;;
14048;SDS011;7099;53.922;10.728;2023-04-15T21:03:54;22.27;;;11.70;;
14048;SDS011;7099;53.922;10.728;2023-04-15T21:08:02;17.70;;;11.63;;
14048;SDS011;7099;53.922;10.728;2023-04-15T21:12:08;22.50;;;10.87;;
14048;SDS011;7099;53.922;10.728;2023-04-15T21:16:14;19.30;;;11.10;;
14048;SDS011;7099;53.922;10.728;2023-04-15T21:20:20;23.43;;;12.57;;
14048;SDS011;7099;53.922;10.728;2023-04-15T21:24:26;25.23;;;12.43;;
14048;SDS011;7099;53.922;10.728;2023-04-15T21:28:31;19.80;;;11.67;;
14048;SDS011;7099;53.922;10.728;2023-04-15T21:32:37;22.00;;;11.57;;
14048;SDS011;7099;53.922;10.728;2023-04-15T21:36:43;22.20;;;12.33;;
14048;SDS011;7099;53.922;10.728;2023-04-15T21:40:49;21.70;;;13.00;;
14048;SDS011;7099;53.922;10.728;2023-04-15T21:44:54;16.37;;;11.30;;
14048;SDS011;7099;53.922;10.728;2023-04-15T21:49:01;24.03;;;13.83;;
14048;SDS011;7099;53.922;10.728;2023-04-15T21:53:08;24.07;;;12.37;;
14048;SDS011;7099;53.922;10.728;2023-04-15T21:57:13;24.00;;;12.70;;
14048;SDS011;7099;53.922;10.728;2023-04-15T22:01:19;19.13;;;12.73;;
14048;SDS011;7099;53.922;10.728;2023-04-15T22:05:25;24.17;;;13.00;;
14048;SDS011;7099;53.922;10.728;2023-04-15T22:09:30;18.77;;;11.40;;
14048;SDS011;7099;53.922;10.728;2023-04-15T22:13:36;21.70;;;12.97;;
14048;SDS011;7099;53.922;10.728;2023-04-15T22:17:44;25.70;;;11.27;;
14048;SDS011;7099;53.922;10.728;2023-04-15T22:21:50;17.03;;;11.23;;
14048;SDS011;7099;53.922;10.728;2023-04-15T22:25:56;20.00;;;12.60;;
14048;SDS011;7099;53.922;10.728;2023-04-15T22:30:03;19.47;;;11.20;;
14048;SDS011;7099;53.922;10.728;2023-04-15T22:34:10;17.67;;;10.20;;
14048;SDS011;7099;53.922;10.728;2023-04-15T22:38:18;24.53;;;12.73;;
14048;SDS011;7099;53.922;10.728;2023-04-15T22:42:24;18.27;;;12.33;;
14048;SDS011;7099;53.922;10.728;2023-04-15T22:46:29;19.27;;;11.33;;
14048;SDS011;7099;53.922;10.728;2023-04-15T22:50:35;19.37;;;12.13;;
14048;SDS011;7099;53.922;10.728;2023-04-15T22:54:41;20.63;;;12.03;;
14048;SDS011;7099;53.922;10.728;2023-04-15T22:58:47;18.00;;;10.67;;
14048;SDS011;7099;53.922;10.728;2023-04-15T23:02:54;22.87;;;13.47;;
14048;SDS011;7099;53.922;10.728;2023-04-15T23:07:00;23.10;;;12.90;;
14048;SDS011;7099;53.922;10.728;2023-04-15T23:11:06;22.70;;;12.27;;
14048;SDS011;7099;53.922;10.728;2023-04-15T23:15:12;25.33;;;13.50;;
14048;SDS011;7099;53.922;10.728;2023-04-15T23:19:17;28.50;;;13.53;;
14048;SDS011;7099;53.922;10.728;2023-04-15T23:23:23;24.53;;;13.87;;
14048;SDS011;7099;53.922;10.728;2023-04-15T23:27:29;24.17;;;13.10;;
14048;SDS011;7099;53.922;10.728;2023-04-15T23:31:34;18.80;;;12.67;;
14048;SDS011;7099;53.922;10.728;2023-04-15T23:35:41;25.17;;;15.67;;
14048;SDS011;7099;53.922;10.728;2023-04-15T23:39:47;16.50;;;11.23;;
14048;SDS011;7099;53.922;10.728;2023-04-15T23:43:52;15.93;;;11.17;;
14048;SDS011;7099;53.922;10.728;2023-04-15T23:47:58;22.57;;;11.80;;
14048;SDS011;7099;53.922;10.728;2023-04-15T23:52:04;21.13;;;10.77;;
14048;SDS011;7099;53.922;10.728;2023-04-15T23:56:10;15.97;;;9.80;;
